Tiempo atmosférico en la estación meteorológica de Areso, Navarra (520 m.)



Fecha
DESCASC
Temp. máxima en grados centígrados (hora)
DESCASC
Temp. mínima en grados centígrados (hora)
DESCASC
Temp. media en grados centígrados
DESCASC
Racha de viento máxima en m/sg (hora)
DESCASC
Velocidad máxima media en intervalos de 10 minutos(hora)
DESCASC
Precipitaciones diarias en mm
DESCASC
Precipitaciones de 00:00 a 06:00 en mm
DESCASC
Precipitaciones de 06:00 a 12:00 en mm
DESCASC
Precipitaciones de 12:00 a 18:00 en mm
DESCASC
Precipitaciones de 18:00 a 24:00 en mm
DESCASC
06-12-2018 12.8 (14:00) 6 (23:40) 9.4 5.28 (12:40) 2.22 (12:40) 0 0 0 0 0
05-12-2018 20.1 (14:30) 9.9 (20:30) 15 8.89 (14:00) 5.28 (14:40) 0 0 0 0 0
04-12-2018 19.1 (14:00) 9.2 (08:40) 14.2 6.67 (23:00) 3.61 (20:50) 0 0 0 0 0
03-12-2018 14.1 (16:10) 9.4 (00:00) 11.8 6.39 (09:30) 2.22 (09:40) 2.2 0 0 2.2 0
02-12-2018 14.8 (14:40) 8.9 (00:00) 11.8 7.22 (14:50) 4.17 (22:50) 0.4 0 0.4 0 0
01-12-2018 11 (14:30) 4.2 (00:00) 7.6 4.72 (15:10) 2.78 (15:10) 2.2 0 1 0.2 1
30-11-2018 11 (12:50) 5.8 (00:00) 8.4 6.11 (14:50) 2.5 (14:30) 10.8 1.8 5.6 2.2 1.2
29-11-2018 12.6 (12:50) 8.1 (00:00) 10.4 17.22 (03:30) 10 (03:30) 0.8 0 0 0.2 0.6
28-11-2018 16 (15:00) 5.6 (00:00) 10.8 11.67 (21:40) 6.67 (16:10) 0 0 0 0 0
27-11-2018 13.5 (14:40) 5.4 (00:00) 9.5 5.83 (23:59) 2.5 (23:59) 5 4 0.8 0 0.2
26-11-2018 7.5 (03:00) 4.9 (08:10) 6.2 6.94 (17:30) 3.89 (01:40) 43.2 1 13.2 25 4
25-11-2018 8.8 (12:20) 3.4 (00:00) 6.1 17.5 (01:00) 9.72 (01:00) 11.2 6 5 0.2 0
24-11-2018 11.9 (14:20) 7.3 (00:00) 9.6 14.72 (22:20) 7.5 (22:40) 0 0 0 0 0
23-11-2018 12.2 (15:00) 6.6 (00:00) 9.4 12.22 (01:00) 7.22 (01:00) 5 0 5 0 0
22-11-2018 11.7 (14:30) 7.7 (00:00) 9.7 14.44 (22:10) 8.61 (13:40) 0 0 0 0 0
21-11-2018 12.7 (16:00) 2.1 (00:00) 7.4 11.94 (23:20) 7.5 (23:20) 0.2 0.2 0 0 0
20-11-2018 6.1 (04:00) 2.5 (00:00) 4.3 3.89 (04:00) 1.67 (03:50) 4 0 0.2 3.8 0
19-11-2018 13.7 (11:30) 4 (00:00) 8.8 14.72 (00:40) 8.06 (00:50) 0 0 0 0 0
18-11-2018 11.6 (00:00) 9.4 (00:00) 10.5 13.61 (11:10) 7.22 (11:10) 0.4 0 0.4 0 0
17-11-2018 17.1 (15:30) 10.1 (00:00) 13.6 11.94 (01:50) 6.67 (08:20) 0 0 0 0 0
16-11-2018 17.4 (14:40) 12.4 (00:00) 14.9 11.94 (05:30) 6.39 (23:40) 0 0 0 0 0
15-11-2018 17.7 (14:00) 13.5 (00:00) 15.6 13.33 (05:10) 7.5 (04:20) 0 0 0 0 0
14-11-2018 18 (14:30) 13.5 (00:00) 15.8 16.67 (04:30) 9.17 (04:20) 0 0 0 0 0
13-11-2018 15.1 (16:00) 9.4 (00:00) 12.3 14.17 (23:50) 8.06 (23:30) 1.8 1.6 0 0 0.2
12-11-2018 15.8 (00:00) 10.1 (00:00) 13 12.22 (05:10) 6.11 (05:00) 6.8 0 0.8 1.4 4.6
11-11-2018 16.2 (15:40) 12.2 (00:00) 14.2 16.67 (12:20) 8.61 (12:40) 0.4 0 0 0.2 0.2
10-11-2018 16.8 (14:10) 9.8 (00:00) 13.3 16.39 (08:20) 7.78 (05:10) 0.6 0.6 0 0 0
09-11-2018 13.7 (14:30) 7.5 (00:00) 10.6 10.83 (23:40) 6.11 (23:50) 5.4 5 0.2 0 0.2

Gráficas

Temp. máximas Temp. mínimas Temp. medias Precipitaciones Rachas de viento máximas Velocidades máximas media en intervalos de 10 minutos

Datos horarios

Fecha y hora oficial Temperatura (ºC) Velocidad del viento (km/h) Dirección del viento Racha (km/h) Dirección de racha Precipitación (mm) Presión (hPa) Tendencia (hPa) Humedad (%)
2018-12-08 23:00:00 8.4 0 Calma 4 Oeste 0 -- -- 86
2018-12-08 22:00:00 7.6 0 Calma 7 Oeste 0 -- -- 84
2018-12-08 21:00:00 6.3 0 Calma 3 Sudeste 0 -- -- 86
2018-12-08 20:00:00 6.2 0 Calma 3 Sudeste 0 -- -- 81
2018-12-08 19:00:00 6.8 0 Calma 3 Sur 0 -- -- 79
2018-12-08 18:00:00 7.7 0 Calma 3 Sudeste 0 -- -- 78
2018-12-08 17:00:00 9.7 0 Calma 4 Sur 0 -- -- 72
2018-12-08 16:00:00 12.7 0 Calma 9 Norte 0 -- -- 57
2018-12-08 15:00:00 11.9 4 Oeste 12 Sudoeste 0 -- -- 58
2018-12-08 14:00:00 11.1 4 Sudoeste 15 Sur 0 -- -- 69
2018-12-08 13:00:00 10.6 5 Oeste 16 Norte 0 -- -- 68
2018-12-08 12:00:00 10.1 6 Noroeste 18 Sudoeste 0 -- -- 74
2018-12-08 11:00:00 9 4 Sudoeste 9 Sur 0 -- -- 84
2018-12-08 10:00:00 7.7 0 Calma 10 Noroeste 0 -- -- 91
2018-12-08 09:00:00 6.9 2 Este 10 Oeste 0 -- -- 95
2018-12-08 08:00:00 7 3 Oeste 15 Sur 0 -- -- 91
2018-12-08 07:00:00 7.5 2 Noroeste 13 Norte 0 -- -- 90
2018-12-08 06:00:00 7.7 4 Oeste 16 Noroeste 0 -- -- 89
2018-12-08 05:00:00 7.6 4 Noroeste 14 Oeste 0 -- -- 92
2018-12-08 04:00:00 6.8 2 Noroeste 9 Noroeste 0 -- -- 95
2018-12-08 03:00:00 7.5 2 Noroeste 12 Noroeste 0 -- -- 90
2018-12-08 02:00:00 7.6 2 Noroeste 12 Norte 0 -- -- 94
2018-12-08 01:00:00 7.8 3 Norte 13 Norte 0 -- -- 94
2018-12-08 00:00:00 7.6 3 Norte 12 Nordeste 0 -- -- 97
2018-12-07 23:00:00 7.6 6 Oeste 19 Oeste 0.4 -- -- 97
2018-12-07 22:00:00 7.9 4 Sudeste 17 Sur 0.8 -- -- 97
2018-12-07 21:00:00 8.7 9 Sudoeste 39 Oeste 1.2 -- -- 97
2018-12-07 20:00:00 9.5 6 Sudoeste 25 Noroeste 2 -- -- 96
2018-12-07 19:00:00 10.2 6 Noroeste 15 Noroeste 1.8 -- -- 96
2018-12-07 18:00:00 10.3 6 Sur 18 Noroeste 0.6 -- -- 95
2018-12-07 17:00:00 11.2 7 Noroeste 16 Noroeste 0.2 -- -- 89
2018-12-07 16:00:00 12 3 Norte 24 Noroeste 0 -- -- 80
2018-12-07 15:00:00 13.6 0 Calma 8 Nordeste 0 -- -- 67
2018-12-07 14:00:00 14.1 8 Sudoeste 14 Sur 0 -- -- 60
2018-12-07 13:00:00 13.8 3 Sudeste 14 Sur 0 -- -- 70
2018-12-07 12:00:00 11.9 2 Sudeste 5 Sudeste 0 -- -- 72
2018-12-07 11:00:00 8.5 0 Calma 3 Este 0 -- -- 93
2018-12-07 10:00:00 4.9 0 Calma 3 Sudeste 0 -- -- 100
2018-12-07 09:00:00 3.5 0 Calma 2 Sudeste 0 -- -- 100
2018-12-07 08:00:00 3.2 0 Calma 2 Sudeste 0 -- -- 100
2018-12-07 07:00:00 3.4 0 Calma 0 Calma 0 -- -- 100
2018-12-07 06:00:00 3.7 0 Calma 2 Sudeste 0 -- -- 100
2018-12-07 05:00:00 3.8 0 Calma -- -- 0 -- -- 100
2018-12-07 04:00:00 4.1 0 Calma 2 Este 0 -- -- 100
2018-12-07 03:00:00 4.4 0 Calma 0 Calma 0 -- -- 100
2018-12-07 02:00:00 4.9 0 Calma 0 Calma 0 -- -- 99
2018-12-07 01:00:00 5.6 0 Calma 2 Sudeste 0 -- -- 99
2018-12-07 00:00:00 6.2 0 Calma 2 Este 0 -- -- 99
2018-12-06 23:00:00 6.4 0 Calma 0 Calma 0 -- -- 96
2018-12-06 22:00:00 7.8 0 Calma 2 Sudeste 0 -- -- 93
2018-12-06 21:00:00 8.5 0 Calma 6 Este 0 -- -- 92
2018-12-06 20:00:00 9.5 0 Calma 6 Este 0 -- -- 89
2018-12-06 19:00:00 10.1 0 Calma 8 Este 0 -- -- 87
2018-12-06 18:00:00 10.7 0 Calma 7 Este 0 -- -- 85
2018-12-06 17:00:00 11.3 0 Calma 8 Este 0 -- -- 81
2018-12-06 16:00:00 11.7 4 Este 16 Este 0 -- -- 79
2018-12-06 15:00:00 12.1 4 Este 14 Este 0 -- -- 79
2018-12-06 14:00:00 12.8 4 Este 17 Nordeste 0 -- -- 76
2018-12-06 13:00:00 12.3 7 Este 19 Este 0 -- -- 78
2018-12-06 12:00:00 12.5 2 Este 11 Este 0 -- -- 77
2018-12-06 11:00:00 11.9 3 Sudeste 11 Norte 0 -- -- 83
2018-12-06 10:00:00 11.2 4 Sur 13 Nordeste 0 -- -- 90
2018-12-06 09:00:00 10.9 3 Sur 9 Este 0 -- -- 94
2018-12-06 08:00:00 11.1 3 Este 8 Este 0 -- -- 95
2018-12-06 07:00:00 11.4 0 Calma 4 Nordeste 0 -- -- 94
2018-12-06 06:00:00 11.4 0 Calma 4 Nordeste 0 -- -- 91
2018-12-06 05:00:00 11.5 0 Calma 3 Noroeste 0 -- -- 88
2018-12-06 04:00:00 11.7 0 Calma 2 Nordeste 0 -- -- 86
2018-12-06 03:00:00 11.9 2 Nordeste 6 Este 0 -- -- 83
2018-12-06 02:00:00 11.9 2 Noroeste 9 Noroeste 0 -- -- 81
2018-12-06 01:00:00 11.4 0 Calma 0 Calma 0 -- -- 84
2018-12-06 00:00:00 11.3 0 Calma 2 Norte 0 -- -- 84
2018-12-05 23:00:00 11 0 Calma 2 Noroeste 0 -- -- 88
2018-12-05 22:00:00 10.6 0 Calma 3 Noroeste 0 -- -- 86
2018-12-05 21:00:00 10.2 0 Calma 2 Norte 0 -- -- 88
2018-12-05 20:00:00 10.1 0 Calma 4 Norte 0 -- -- 87
2018-12-05 19:00:00 10.7 3 Norte 8 Nordeste 0 -- -- 83
2018-12-05 18:00:00 13.3 3 Nordeste 19 Noroeste 0 -- -- 73
2018-12-05 17:00:00 18.2 10 Oeste 21 Oeste 0 -- -- 39
2018-12-05 16:00:00 19 4 Noroeste 26 Oeste 0 -- -- 37
2018-12-05 15:00:00 19.7 14 Sudoeste 31 Sur 0 -- -- 35
2018-12-05 14:00:00 19.7 16 Sudoeste 32 Sudoeste 0 -- -- 39
2018-12-05 13:00:00 19.3 5 Sudoeste 21 Sudoeste 0 -- -- 49
2018-12-05 12:00:00 17.3 12 Sudoeste 23 Sudoeste 0 -- -- 56
2018-12-05 11:00:00 16.5 8 Sudoeste 20 Oeste 0 -- -- 61
2018-12-05 10:00:00 14.3 12 Sudoeste 24 Sudoeste 0 -- -- 70
2018-12-05 09:00:00 12.8 4 Oeste 17 Oeste 0 -- -- 73
2018-12-05 08:00:00 13 10 Oeste 17 Oeste 0 -- -- 72
2018-12-05 07:00:00 13.5 7 Oeste 23 Oeste 0 -- -- 70
2018-12-05 06:00:00 13.7 12 Oeste 23 Oeste 0 -- -- 71
2018-12-05 05:00:00 13.6 10 Oeste 18 Oeste 0 -- -- 72
2018-12-05 04:00:00 11.3 3 Oeste 18 Oeste 0 -- -- 83
2018-12-05 03:00:00 12.6 4 Oeste 15 Sudoeste 0 -- -- 77
2018-12-05 02:00:00 13.8 10 Oeste 22 Oeste 0 -- -- 73
2018-12-05 01:00:00 14.4 14 Oeste 23 Oeste 0 -- -- 70
2018-12-05 00:00:00 14.8 9 Oeste 23 Oeste 0 -- -- 68
2018-12-04 23:00:00 15.4 12 Oeste 24 Sudoeste 0 -- -- 66
2018-12-04 22:00:00 15.2 10 Oeste 22 Sudoeste 0 -- -- 67
2018-12-04 21:00:00 15.4 10 Oeste 24 Noroeste 0 -- -- 66
2018-12-04 20:00:00 15.4 10 Oeste 19 Oeste 0 -- -- 66
2018-12-04 19:00:00 15.3 9 Oeste 15 Oeste 0 -- -- 69
2018-12-04 18:00:00 15.9 8 Oeste 19 Sudoeste 0 -- -- 67
2018-12-04 17:00:00 16.8 12 Sudoeste 22 Sudoeste 0 -- -- 64
2018-12-04 16:00:00 18 8 Sudoeste 21 Sur 0 -- -- 59
2018-12-04 15:00:00 18.7 8 Sudoeste 19 Sudoeste 0 -- -- 60
2018-12-04 14:00:00 19.1 4 Sur 10 Sur 0 -- -- 64
2018-12-04 13:00:00 18 3 Este 8 Nordeste 0 -- -- 71
2018-12-04 12:00:00 16 0 Calma 4 Este 0 -- -- 84
2018-12-04 11:00:00 12.9 0 Calma 2 Este 0 -- -- 95
2018-12-04 10:00:00 10.4 0 Calma 0 Calma 0 -- -- 100
2018-12-04 09:00:00 9.2 0 Calma 2 Este 0 -- -- 100
2018-12-04 08:00:00 9.5 0 Calma 4 Este 0 -- -- 100
2018-12-04 07:00:00 9.9 0 Calma 4 Este 0 -- -- 100
2018-12-04 06:00:00 9.8 2 Este 3 Este 0 -- -- 100
2018-12-04 05:00:00 10.2 0 Calma 3 Este 0 -- -- 99
2018-12-04 04:00:00 10.3 0 Calma 2 Este 0 -- -- 99
2018-12-04 03:00:00 10.2 0 Calma 3 Este 0 -- -- 100
2018-12-04 02:00:00 10.1 0 Calma 2 Este 0 -- -- 99
2018-12-04 01:00:00 10.3 0 Calma 3 Este 0 -- -- 99
2018-12-04 00:00:00 10.6 0 Calma 3 Este 0 -- -- 98
2018-12-03 23:00:00 11.2 0 Calma 3 Este 0 -- -- 97
2018-12-03 22:00:00 11.4 0 Calma 4 Este 0 -- -- 97
2018-12-03 21:00:00 11.6 0 Calma 2 Este 0 -- -- 96
2018-12-03 20:00:00 11.5 0 Calma 4 Este 0 -- -- 96
2018-12-03 19:00:00 11.5 0 Calma 3 Este 0 -- -- 94
2018-12-03 18:00:00 12.4 0 Calma 5 Sudeste 0 -- -- 89
2018-12-03 17:00:00 13.4 0 Calma 9 Sudoeste 0 -- -- 86
2018-12-03 16:00:00 14 3 Sudoeste 6 Sudoeste 0 -- -- 82
2018-12-03 15:00:00 13.8 0 Calma 11 Oeste 0 -- -- 86
2018-12-03 14:00:00 12.9 0 Calma 4 Oeste 0.4 -- -- 93
2018-12-03 13:00:00 11.9 4 Oeste 15 Noroeste 1.8 -- -- 91
2018-12-03 12:00:00 13.4 8 Oeste 14 Oeste 0 -- -- 72
2018-12-03 11:00:00 12.9 6 Oeste 13 Sudoeste 0 -- -- 72
2018-12-03 10:00:00 12.2 4 Norte 23 Sur 0 -- -- 76
2018-12-03 09:00:00 9.6 0 Calma 7 Oeste 0 -- -- 86
2018-12-03 08:00:00 10.4 2 Oeste 11 Noroeste 0 -- -- 82
2018-12-03 07:00:00 10.3 2 Oeste 6 Oeste 0 -- -- 83
2018-12-03 06:00:00 10.6 0 Calma 6 Oeste 0 -- -- 82
2018-12-03 05:00:00 11.4 2 Oeste 12 Sudoeste 0 -- -- 78
2018-12-03 04:00:00 11.5 4 Sudoeste 14 Sudoeste 0 -- -- 74
2018-12-03 03:00:00 11.1 2 Sudoeste 14 Noroeste 0 -- -- 76
2018-12-03 02:00:00 10.4 0 Calma 10 Oeste 0 -- -- 79
2018-12-03 01:00:00 11.1 3 Oeste 11 Noroeste 0 -- -- 75
2018-12-03 00:00:00 11.7 9 Oeste 13 Oeste 0 -- -- 72
2018-12-02 23:00:00 11.9 9 Sur 25 Sur 0 -- -- 71
2018-12-02 22:00:00 11.6 6 Sudoeste 17 Sudoeste 0 -- -- 73
2018-12-02 21:00:00 11.6 3 Oeste 11 Oeste 0 -- -- 75
2018-12-02 20:00:00 11.2 2 Sudoeste 8 Oeste 0 -- -- 78
2018-12-02 19:00:00 11.4 4 Oeste 10 Oeste 0 -- -- 76
2018-12-02 18:00:00 12 0 Calma 13 Oeste 0 -- -- 73
2018-12-02 17:00:00 12.8 5 Sudoeste 26 Sur 0 -- -- 71
2018-12-02 16:00:00 13.9 12 Sur 20 Sur 0 -- -- 68
2018-12-02 15:00:00 14.3 14 Sur 26 Sur 0 -- -- 63
2018-12-02 14:00:00 13.9 14 Sudoeste 24 Sudoeste 0 -- -- 64
2018-12-02 13:00:00 12.8 4 Sudoeste 20 Sur 0 -- -- 70
2018-12-02 12:00:00 11.8 11 Sudoeste 19 Sudoeste 0 -- -- 76
2018-12-02 11:00:00 11.2 6 Sudoeste 14 Noroeste 0 -- -- 81
2018-12-02 10:00:00 10.4 4 Sudoeste 12 Noroeste 0.2 -- -- 87
2018-12-02 09:00:00 10.1 8 Oeste 16 Oeste 0.2 -- -- 85
2018-12-02 08:00:00 10.3 7 Oeste 13 Oeste 0 -- -- 80
2018-12-02 07:00:00 10.1 4 Sudoeste 21 Sur 0 -- -- 81
2018-12-02 06:00:00 9.6 5 Sudoeste 12 Sudoeste 0 -- -- 84
2018-12-02 05:00:00 9.2 4 Sudoeste 15 Sudoeste 0 -- -- 87
2018-12-02 04:00:00 9.6 5 Oeste 11 Oeste 0 -- -- 85
2018-12-02 03:00:00 9.7 3 Oeste 15 Sudoeste 0 -- -- 86
2018-12-02 02:00:00 9.8 6 Oeste 17 Sudoeste 0 -- -- 86
2018-12-02 01:00:00 9.6 7 Sudoeste 19 Oeste 0 -- -- 88
2018-12-02 00:00:00 9.3 4 Sudoeste 10 Oeste 0 -- -- 91
2018-12-01 23:00:00 9.1 4 Noroeste 9 Noroeste 0.4 -- -- 94
2018-12-01 22:00:00 8.5 0 Calma 4 Oeste 0.2 -- -- 99
2018-12-01 21:00:00 8.6 2 Noroeste 10 Noroeste 0.2 -- -- 97
2018-12-01 20:00:00 9.1 2 Oeste 10 Oeste 0 -- -- 93
2018-12-01 19:00:00 8.7 2 Oeste 13 Oeste 0.2 -- -- 97
2018-12-01 18:00:00 9 0 Calma 4 Sudoeste 0.2 -- -- 95
2018-12-01 17:00:00 9.3 0 Calma 8 Sudoeste 0 -- -- 94
2018-12-01 16:00:00 9.3 4 Sudoeste 17 Sur 0 -- -- 90
2018-12-01 15:00:00 10.7 8 Sudoeste 14 Sudoeste 0 -- -- 74
2018-12-01 14:00:00 10.4 6 Sudoeste 11 Oeste 0 -- -- 80
2018-12-01 13:00:00 9.5 0 Calma 4 Oeste 0 -- -- 92
2018-12-01 12:00:00 8.3 0 Calma 2 Norte 0 -- -- 99
2018-12-01 11:00:00 7.5 0 Calma 2 Norte 0.2 -- -- 100
2018-12-01 10:00:00 6.6 0 Calma 2 Norte 0.4 -- -- 100
2018-12-01 09:00:00 6.1 0 Calma 3 Norte 0.4 -- -- 100
2018-12-01 08:00:00 5.8 0 Calma 12 Noroeste 0 -- -- 99
2018-12-01 07:00:00 5.7 0 Calma 4 Noroeste 0 -- -- 100
2018-12-01 06:00:00 5.6 0 Calma 6 Oeste 0 -- -- 100
2018-12-01 05:00:00 5.1 0 Calma 3 Noroeste 0 -- -- 100
2018-12-01 04:00:00 4.7 0 Calma 3 Noroeste 0 -- -- 100
2018-12-01 03:00:00 4.4 0 Calma 2 Noroeste 0 -- -- 100
2018-12-01 02:00:00 4.4 0 Calma 2 Noroeste 0 -- -- 100
2018-12-01 01:00:00 5.1 0 Calma 2 Noroeste 0 -- -- 100
2018-12-01 00:00:00 5.8 0 Calma 3 Noroeste 0 -- -- 100
2018-11-30 23:00:00 6.1 0 Calma 2 Sudoeste 0 -- -- 100
2018-11-30 22:00:00 6.6 0 Calma 2 Noroeste 0 -- -- 100
2018-11-30 21:00:00 7 0 Calma 4 Noroeste 0 -- -- 99
2018-11-30 20:00:00 7.5 0 Calma 11 Este 1.2 -- -- 98
2018-11-30 19:00:00 7.5 0 Calma 2 Sudeste 0 -- -- 99
2018-11-30 18:00:00 7.7 0 Calma 8 Sudeste 0.2 -- -- 97
2018-11-30 17:00:00 8.7 4 Sur 13 Noroeste 1 -- -- 90
2018-11-30 16:00:00 8.6 3 Este 12 Este 0.4 -- -- 95
2018-11-30 15:00:00 9.4 5 Oeste 22 Oeste 0.6 -- -- 83
2018-11-30 14:00:00 10.2 6 Norte 17 Noroeste 0 -- -- 73
2018-11-30 13:00:00 10.9 4 Oeste 13 Norte 0 -- -- 76
2018-11-30 12:00:00 10.8 4 Este 11 Norte 0 -- -- 83
2018-11-30 11:00:00 8.2 0 Calma 6 Este 0 -- -- 98
2018-11-30 10:00:00 6.7 0 Calma 16 Sudeste 1.6 -- -- 98
2018-11-30 09:00:00 6.9 3 Nordeste 9 Nordeste 1 -- -- 99
2018-11-30 08:00:00 7 0 Calma 14 Este 3 -- -- 99
2018-11-30 07:00:00 6.9 2 Noroeste 5 Noroeste 0 -- -- 100
2018-11-30 06:00:00 7.3 2 Noroeste 8 Sudoeste 0.6 -- -- 100
2018-11-30 05:00:00 7.3 0 Calma 3 Oeste 0 -- -- 100
2018-11-30 04:00:00 7.5 0 Calma 3 Noroeste 0.8 -- -- 99
2018-11-30 03:00:00 7.5 0 Calma 5 Noroeste 0.2 -- -- 98
2018-11-30 02:00:00 7.6 3 Noroeste 5 Noroeste 0 -- -- 97
2018-11-30 01:00:00 7.8 0 Calma 6 Oeste 0.2 -- -- 94
2018-11-30 00:00:00 8.1 0 Calma 7 Noroeste 0.2 -- -- 90
2018-11-29 23:00:00 8.7 0 Calma 15 Oeste 0 -- -- 84
2018-11-29 22:00:00 9.5 8 Sudoeste 21 Sudoeste 0.2 -- -- 74
2018-11-29 21:00:00 10.2 12 Sudoeste 25 Oeste 0 -- -- 66
2018-11-29 20:00:00 9.9 12 Oeste 28 Sudoeste 0 -- -- 71
2018-11-29 19:00:00 10 7 Oeste 20 Sudoeste 0.2 -- -- 67
2018-11-29 18:00:00 11.2 6 Oeste 28 Sur 0.2 -- -- 55
2018-11-29 17:00:00 12.3 12 Sudoeste 21 Sur 0 -- -- 42
2018-11-29 16:00:00 11.9 14 Sudoeste 34 Sur 0 -- -- 51
2018-11-29 15:00:00 12.3 18 Sudoeste 37 Sur 0 -- -- 45
2018-11-29 14:00:00 11.9 13 Sur 40 Sur 0 -- -- 45
2018-11-29 13:00:00 12.4 22 Sur 49 Sur 0 -- -- 43
2018-11-29 12:00:00 11.5 28 Sur 45 Sur 0 -- -- 42
2018-11-29 11:00:00 10.4 28 Sudoeste 55 Sudoeste 0 -- -- 50
2018-11-29 10:00:00 10.4 23 Sudoeste 53 Sudoeste 0 -- -- 47
2018-11-29 09:00:00 9.7 16 Sudoeste 47 Sur 0 -- -- 52
2018-11-29 08:00:00 9.7 22 Sur 49 Sur 0 -- -- 53
2018-11-29 07:00:00 10.4 14 Sur 35 Sur 0 -- -- 47
2018-11-29 06:00:00 10.7 20 Sudoeste 34 Sur 0 -- -- 46
2018-11-29 05:00:00 10.1 10 Sudoeste 48 Sur 0 -- -- 50
2018-11-29 04:00:00 10.4 22 Sudoeste 62 Sur 0 -- -- 51
2018-11-29 03:00:00 9.9 22 Sur 40 Sudoeste 0 -- -- 55
2018-11-29 02:00:00 10.3 27 Sur 54 Sudoeste 0 -- -- 53
2018-11-29 01:00:00 10.7 25 Sur 40 Sur 0 -- -- 47
2018-11-29 00:00:00 12.1 23 Sudoeste 37 Sur 0 -- -- 39
2018-11-28 23:00:00 11.6 19 Sudoeste 40 Sudoeste 0 -- -- 42
2018-11-28 22:00:00 11.4 14 Sudoeste 42 Sudoeste 0 -- -- 42
2018-11-28 21:00:00 11.1 9 Oeste 19 Oeste 0 -- -- 46
2018-11-28 14:00:00 -- -- -- -- -- -- -- -- --
2018-11-28 13:00:00 14.7 13 Sudoeste 28 Sudoeste 0 -- -- 36
2018-11-28 12:00:00 13 8 Oeste 15 Oeste 0 -- -- 40
2018-11-28 11:00:00 11.2 7 Sudoeste 15 Sudoeste 0 -- -- 49
2018-11-28 10:00:00 9.1 4 Oeste 9 Oeste 0 -- -- 69
2018-11-28 09:00:00 6.9 0 Calma 6 Oeste 0 -- -- 70
2018-11-28 08:00:00 8.2 2 Oeste 13 Oeste 0 -- -- 63
2018-11-28 07:00:00 7.6 2 Oeste 12 Oeste 0 -- -- 64
2018-11-28 06:00:00 7 3 Oeste 9 Noroeste 0 -- -- 70
2018-11-28 05:00:00 7.6 3 Oeste 10 Oeste 0 -- -- 66
2018-11-28 04:00:00 7.7 7 Oeste 14 Oeste 0 -- -- 66
2018-11-28 03:00:00 8 3 Oeste 12 Oeste 0 -- -- 67
2018-11-28 02:00:00 5.8 0 Calma 4 Sudoeste 0 -- -- 81
2018-11-28 01:00:00 6.7 0 Calma 6 Sudoeste 0 -- -- 76
2018-11-28 00:00:00 7.9 9 Sudoeste 21 Sudoeste 0.2 -- -- 67
2018-11-27 23:00:00 5.5 0 Calma 2 Sudoeste 0 -- -- 90
2018-11-27 22:00:00 5.9 0 Calma 2 Oeste 0 -- -- 88
2018-11-27 21:00:00 5.9 0 Calma 2 Oeste 0 -- -- 88
2018-11-27 20:00:00 6.5 0 Calma 2 Sudoeste 0 -- -- 87
2018-11-27 19:00:00 7.3 0 Calma 4 Sudoeste 0 -- -- 81
2018-11-27 18:00:00 8.9 0 Calma 5 Oeste 0 -- -- 80
2018-11-27 17:00:00 11.3 0 Calma 2 Sudoeste 0 -- -- 74
2018-11-27 16:00:00 13.5 0 Calma 11 Sudoeste 0 -- -- 68
2018-11-27 15:00:00 13.3 7 Sudoeste 13 Sur 0 -- -- 64
2018-11-27 14:00:00 13 6 Sudoeste 11 Sur 0 -- -- 62
2018-11-27 13:00:00 12.7 2 Sudoeste 6 Sur 0 -- -- 71
2018-11-27 12:00:00 11.5 3 Sur 5 Sudoeste 0 -- -- 86
2018-11-27 11:00:00 9.6 0 Calma 4 Sudoeste 0 -- -- 94
2018-11-27 10:00:00 7.5 2 Sudoeste 4 Sur 0 -- -- 100
2018-11-27 09:00:00 6.8 0 Calma 4 Sudoeste 0 -- -- 100
2018-11-27 08:00:00 7.2 2 Sudoeste 10 Sur 0 -- -- 100
2018-11-27 07:00:00 6.9 0 Calma 3 Nordeste 0.8 -- -- 100
2018-11-27 06:00:00 6.8 0 Calma 3 Nordeste 1.2 -- -- 100
2018-11-27 05:00:00 6.7 0 Calma 2 Nordeste 1.4 -- -- 100
2018-11-27 04:00:00 6.7 0 Calma 3 Nordeste 1.2 -- -- 100
2018-11-27 03:00:00 6.7 0 Calma 8 Noroeste 0.2 -- -- 100
2018-11-27 02:00:00 6.8 0 Calma 6 Este 0 -- -- 99
2018-11-27 01:00:00 6.9 0 Calma 9 Sudeste 0 -- -- 99
2018-11-27 00:00:00 6.9 2 Sudeste 10 Sudoeste 0 -- -- 99
2018-11-26 23:00:00 7.1 4 Sur 12 Sudeste 1.6 -- -- 97
2018-11-26 22:00:00 7 2 Sudeste 13 Nordeste 0.2 -- -- 99
2018-11-26 21:00:00 7.1 5 Sudeste 24 Sudeste 1 -- -- 98
2018-11-26 20:00:00 7.1 3 Sudeste 11 Sur 1 -- -- 99
2018-11-26 19:00:00 7.2 4 Sudeste 23 Noroeste 0.2 -- -- 97
2018-11-26 18:00:00 6.9 4 Sur 25 Nordeste 0.4 -- -- 99
2018-11-26 17:00:00 6.7 3 Sudeste 18 Sudoeste 0.6 -- -- 100
2018-11-26 16:00:00 6.1 3 Sur 18 Este 3.4 -- -- 100
2018-11-26 15:00:00 6.1 4 Este 17 Nordeste 7.4 -- -- 100
2018-11-26 14:00:00 6.1 0 Calma 24 Noroeste 6.8 -- -- 99
2018-11-26 13:00:00 6 4 Sudoeste 16 Oeste 6.4 -- -- 97
2018-11-26 12:00:00 5.7 4 Sudoeste 15 Sudoeste 3.8 -- -- 96
2018-11-26 11:00:00 5.5 3 Sur 18 Sudoeste 2.6 -- -- 97
2018-11-26 10:00:00 5.4 7 Noroeste 23 Oeste 3.2 -- -- 94
2018-11-26 09:00:00 5.2 3 Sudoeste 13 Sudeste 0.2 -- -- 97
2018-11-26 08:00:00 5.1 4 Sur 13 Noroeste 2 -- -- 94
2018-11-26 07:00:00 5.3 3 Noroeste 9 Noroeste 1.4 -- -- 96
2018-11-26 06:00:00 5.5 2 Oeste 12 Noroeste 0.4 -- -- 97
2018-11-26 05:00:00 5.9 0 Calma 12 Oeste 0.6 -- -- 93
2018-11-26 04:00:00 7.3 5 Oeste 11 Oeste 0 -- -- 73
2018-11-26 03:00:00 7.5 4 Oeste 12 Noroeste 0 -- -- 71
2018-11-26 02:00:00 7.4 8 Oeste 23 Sur 0 -- -- 72
2018-11-26 01:00:00 6.4 3 Oeste 8 Oeste 0 -- -- 82
2018-11-26 00:00:00 5.2 3 Sudoeste 14 Sudoeste 0 -- -- 89
2018-11-25 23:00:00 4.3 0 Calma 4 Noroeste 0 -- -- 98
2018-11-25 22:00:00 3.7 0 Calma 3 Noroeste 0 -- -- 98
2018-11-25 21:00:00 3.5 0 Calma 3 Noroeste 0 -- -- 97
2018-11-25 20:00:00 3.9 0 Calma 2 Noroeste 0 -- -- 95
2018-11-25 19:00:00 4.6 0 Calma 2 Sudoeste 0 -- -- 93
2018-11-25 18:00:00 5.8 0 Calma 5 Noroeste 0 -- -- 88
2018-11-25 17:00:00 8.1 0 Calma 6 Noroeste 0 -- -- 79
2018-11-25 16:00:00 8.4 0 Calma 9 Oeste 0 -- -- 81
2018-11-25 15:00:00 8.6 0 Calma 8 Noroeste 0 -- -- 74
2018-11-25 14:00:00 8.2 2 Sudoeste 12 Noroeste 0.2 -- -- 83
2018-11-25 13:00:00 8.7 3 Sudoeste 18 Sudoeste 0 -- -- 81
2018-11-25 12:00:00 7.9 2 Norte 11 Sudeste 0 -- -- 85
2018-11-25 11:00:00 7.9 2 Sur 13 Sudoeste 0 -- -- 88
2018-11-25 10:00:00 7.1 5 Oeste 16 Noroeste 0.6 -- -- 89
2018-11-25 09:00:00 6.4 2 Nordeste 15 Nordeste 0.2 -- -- 97
2018-11-25 08:00:00 6.9 0 Calma 22 Noroeste 0.2 -- -- 94
2018-11-25 07:00:00 6.4 3 Oeste 11 Noroeste 4 -- -- 99
2018-11-25 06:00:00 6.6 2 Nordeste 27 Sur 3.2 -- -- 96
2018-11-25 05:00:00 6.7 9 Sur 21 Sudoeste 2 -- -- 91
2018-11-25 04:00:00 7 11 Sudoeste 35 Sudoeste 0.8 -- -- 87
2018-11-25 03:00:00 7.8 13 Sudoeste 50 Sur 0 -- -- 77
2018-11-25 02:00:00 8.1 23 Sudoeste 57 Sur 0 -- -- 73
2018-11-25 01:00:00 7.9 35 Sudoeste 63 Sur 0 -- -- 73
2018-11-25 00:00:00 8.1 25 Sur 50 Sur 0 -- -- 70
2018-11-24 23:00:00 9 22 Sur 53 Sudoeste 0 -- -- 65
2018-11-24 22:00:00 9 18 Sur 46 Sudeste 0 -- -- 67
2018-11-24 21:00:00 8.8 12 Sur 34 Sudeste 0 -- -- 72
2018-11-24 20:00:00 9.4 17 Sur 37 Sur 0 -- -- 72
2018-11-24 19:00:00 9.3 7 Sur 28 Sur 0 -- -- 71
2018-11-24 18:00:00 9.5 3 Sudoeste 29 Sur 0 -- -- 70
2018-11-24 17:00:00 10.5 13 Sur 30 Sur 0 -- -- 65
2018-11-24 16:00:00 11 14 Sur 31 Sudoeste 0 -- -- 64
2018-11-24 15:00:00 10.7 8 Sur 24 Sur 0 -- -- 67
2018-11-24 14:00:00 11.2 13 Sudoeste 26 Sudoeste 0 -- -- 62
2018-11-24 13:00:00 11 10 Sudoeste 22 Sudoeste 0 -- -- 63
2018-11-24 12:00:00 10.8 12 Sudoeste 27 Sudoeste 0 -- -- 63
2018-11-24 11:00:00 10.1 7 Sur 24 Sudoeste 0 -- -- 66
2018-11-24 10:00:00 8.8 9 Sudoeste 23 Sur 0 -- -- 69
2018-11-24 09:00:00 8.4 14 Sudoeste 29 Sudoeste 0 -- -- 69
2018-11-24 08:00:00 9.4 11 Sudoeste 22 Sudoeste 0 -- -- 65
2018-11-24 07:00:00 9.4 10 Sudoeste 23 Sur 0 -- -- 66
2018-11-24 06:00:00 8.7 11 Sudoeste 27 Oeste 0 -- -- 66
2018-11-24 05:00:00 7.8 3 Sudoeste 13 Sudeste 0 -- -- 72
2018-11-24 04:00:00 8.2 4 Sur 19 Sur 0 -- -- 69
2018-11-24 03:00:00 8.7 6 Sudoeste 30 Sudoeste 0 -- -- 66
2018-11-24 02:00:00 9.3 13 Sudoeste 31 Oeste 0 -- -- 63
2018-11-24 01:00:00 7.8 3 Oeste 14 Oeste 0 -- -- 68
2018-11-24 00:00:00 7.3 0 Calma 9 Oeste 0 -- -- 70
2018-11-23 23:00:00 8.1 2 Sudoeste 17 Sudoeste 0 -- -- 65
2018-11-23 22:00:00 8.3 3 Sudoeste 17 Sudoeste 0 -- -- 63
2018-11-23 21:00:00 9.6 13 Sudoeste 30 Noroeste 0 -- -- 56
2018-11-23 20:00:00 9.4 10 Sudoeste 23 Oeste 0 -- -- 55
2018-11-23 19:00:00 8.8 3 Sudoeste 30 Sudoeste 0 -- -- 61
2018-11-23 18:00:00 10.2 13 Oeste 30 Sudoeste 0 -- -- 53
2018-11-23 17:00:00 10.5 8 Sudoeste 28 Sur 0 -- -- 56
2018-11-23 16:00:00 11.6 15 Sudoeste 38 Sudoeste 0 -- -- 52
2018-11-23 15:00:00 12.2 10 Sudoeste 38 Sudoeste 0 -- -- 57
2018-11-23 14:00:00 10.4 13 Sudoeste 28 Noroeste 0 -- -- 59
2018-11-23 13:00:00 9.9 12 Sudoeste 33 Sur 0 -- -- 67
2018-11-23 12:00:00 9.7 9 Sudoeste 25 Sudoeste 0 -- -- 74
2018-11-23 11:00:00 7.1 8 Sudoeste 15 Oeste 0.2 -- -- 89
2018-11-23 10:00:00 6.6 4 Oeste 9 Oeste 0.4 -- -- 95
2018-11-23 09:00:00 7 0 Calma 10 Sudoeste 2 -- -- 94
2018-11-23 08:00:00 7.7 4 Sudoeste 18 Sudoeste 2.2 -- -- 89
2018-11-23 07:00:00 8.9 8 Sudoeste 21 Sudoeste 0.2 -- -- 78
2018-11-23 06:00:00 9.9 10 Sudoeste 25 Sur 0 -- -- 64
2018-11-23 05:00:00 9.9 9 Sur 43 Sur 0 -- -- 65
2018-11-23 04:00:00 10.3 17 Sur 35 Sur 0 -- -- 62
2018-11-23 03:00:00 10.4 17 Sur 39 Sur 0 -- -- 63
2018-11-23 02:00:00 10.5 12 Sur 37 Sur 0 -- -- 63
2018-11-23 01:00:00 10.7 26 Sur 44 Sur 0 -- -- 64
2018-11-23 00:00:00 10.8 24 Sudoeste 42 Sur 0 -- -- 66
2018-11-22 23:00:00 10.3 21 Sur 52 Sur 0 -- -- 69
2018-11-22 22:00:00 10.3 24 Sur 50 Sudoeste 0 -- -- 70
2018-11-22 21:00:00 10.3 19 Sudoeste 42 Sur 0 -- -- 69
2018-11-22 20:00:00 10 19 Sur 40 Sudeste 0 -- -- 71
2018-11-22 19:00:00 10.4 21 Sur 43 Sudoeste 0 -- -- 66
2018-11-22 18:00:00 10.1 16 Sur 34 Sur 0 -- -- 67
2018-11-22 17:00:00 10.5 5 Sur 37 Sur 0 -- -- 66
2018-11-22 16:00:00 11.3 19 Sur 40 Sudoeste 0 -- -- 64
2018-11-22 15:00:00 11.7 23 Sudoeste 45 Sudoeste 0 -- -- 62
2018-11-22 14:00:00 11.2 25 Sur 49 Sudoeste 0 -- -- 63
2018-11-22 13:00:00 10.8 27 Sudoeste 51 Sur 0 -- -- 66
2018-11-22 12:00:00 10.1 28 Sur 50 Sudoeste 0 -- -- 63
2018-11-22 11:00:00 10 27 Sur 45 Sudoeste 0 -- -- 67
2018-11-22 10:00:00 9.2 18 Sur 41 Sudoeste 0 -- -- 71
2018-11-22 09:00:00 8.1 14 Sur 35 Sur 0 -- -- 74
2018-11-22 08:00:00 8 14 Sur 33 Sur 0 -- -- 74
2018-11-22 07:00:00 8 13 Sur 37 Sudoeste 0 -- -- 77
2018-11-22 06:00:00 7.9 10 Sudoeste 38 Sur 0 -- -- 78
2018-11-22 05:00:00 8.4 17 Sur 28 Sur 0 -- -- 76
2018-11-22 04:00:00 8.6 10 Sudoeste 28 Sur 0 -- -- 75
2018-11-22 03:00:00 8.7 21 Sudoeste 36 Sur 0 -- -- 77
2018-11-22 02:00:00 8.9 15 Sudoeste 36 Sudoeste 0 -- -- 78
2018-11-22 01:00:00 9.3 17 Sudoeste 33 Sur 0 -- -- 77
2018-11-22 00:00:00 9.6 21 Sur 43 Sur 0 -- -- 75
2018-11-21 23:00:00 9.7 21 Sur 37 Sudoeste 0 -- -- 74
2018-11-21 22:00:00 9.7 17 Sudoeste 32 Sur 0 -- -- 75
2018-11-21 21:00:00 10.1 14 Sur 34 Sudoeste 0 -- -- 76
2018-11-21 20:00:00 10.1 9 Sudoeste 23 Sur 0 -- -- 78
2018-11-21 19:00:00 10.2 10 Sudoeste 22 Sudoeste 0 -- -- 74
2018-11-21 18:00:00 10.2 9 Sudoeste 19 Sur 0 -- -- 64
2018-11-21 17:00:00 11.7 6 Sur 24 Sur 0 -- -- 62
2018-11-21 16:00:00 12.7 17 Sudoeste 32 Sudoeste 0 -- -- 55
2018-11-21 15:00:00 12.1 15 Sudoeste 34 Sur 0 -- -- 64
2018-11-21 14:00:00 10.7 13 Sur 30 Sur 0 -- -- 72
2018-11-21 13:00:00 9.7 12 Sudoeste 31 Sudoeste 0 -- -- 81
2018-11-21 12:00:00 9.2 13 Sudoeste 31 Sudoeste 0 -- -- 82
2018-11-21 11:00:00 8.7 12 Sudoeste 22 Sur 0 -- -- 80
2018-11-21 10:00:00 8.7 6 Sudoeste 19 Sudoeste 0 -- -- 80
2018-11-21 09:00:00 7.5 7 Oeste 24 Sudoeste 0 -- -- 86
2018-11-21 08:00:00 7 11 Sudoeste 31 Sur 0 -- -- 89
2018-11-21 07:00:00 6.9 16 Sudoeste 32 Sur 0 -- -- 90
2018-11-21 06:00:00 6.8 13 Sudoeste 28 Sudoeste 0 -- -- 89
2018-11-21 05:00:00 6.2 15 Sudoeste 28 Oeste 0 -- -- 91
2018-11-21 04:00:00 4.6 4 Oeste 12 Oeste 0 -- -- 100
2018-11-21 03:00:00 2.7 0 Calma 2 Nordeste 0 -- -- 100
2018-11-21 02:00:00 2.5 0 Calma 3 Este 0 -- -- 100
2018-11-21 01:00:00 2.3 0 Calma 3 Norte 0.2 -- -- 100
2018-11-21 00:00:00 2.7 0 Calma 3 Norte 0 -- -- 100
2018-11-20 23:00:00 2.8 0 Calma 2 Nordeste 0 -- -- 100
2018-11-20 22:00:00 2.6 0 Calma 3 Nordeste 0 -- -- 100
2018-11-20 21:00:00 2.7 0 Calma 3 Nordeste 0 -- -- 100
2018-11-20 20:00:00 2.7 0 Calma 5 Este 0 -- -- 99
2018-11-20 19:00:00 2.8 0 Calma 3 Nordeste 0 -- -- 99
2018-11-20 18:00:00 3 0 Calma 3 Nordeste 0 -- -- 99
2018-11-20 17:00:00 3.2 0 Calma 5 Este 0.4 -- -- 98
2018-11-20 16:00:00 3.4 0 Calma 5 Nordeste 0.2 -- -- 98
2018-11-20 15:00:00 3.4 2 Nordeste 5 Nordeste 0.4 -- -- 98
2018-11-20 14:00:00 3.6 0 Calma 6 Este 2 -- -- 99
2018-11-20 13:00:00 3.9 0 Calma 5 Este 0.8 -- -- 100
2018-11-20 12:00:00 3.8 0 Calma 5 Nordeste 0 -- -- 99
2018-11-20 11:00:00 3.7 3 Nordeste 8 Este 0 -- -- 100
2018-11-20 10:00:00 3.9 0 Calma 5 Norte 0 -- -- 100
2018-11-20 09:00:00 3.8 0 Calma 5 Norte 0.2 -- -- 99
2018-11-20 08:00:00 4 0 Calma 8 Norte 0 -- -- 98
2018-11-20 07:00:00 4.6 3 Nordeste 10 Norte 0 -- -- 98
2018-11-20 06:00:00 5.5 3 Nordeste 6 Este 0 -- -- 97
2018-11-20 05:00:00 6 0 Calma 12 Sudoeste 0 -- -- 94
2018-11-20 04:00:00 6.1 5 Sudoeste 14 Sudoeste 0 -- -- 92
2018-11-20 03:00:00 5.7 0 Calma 9 Sur 0 -- -- 96
2018-11-20 02:00:00 5.2 0 Calma 4 Noroeste 0 -- -- 100
2018-11-20 01:00:00 4.4 0 Calma 2 Norte 0 -- -- 99
2018-11-20 00:00:00 4.2 0 Calma 3 Noroeste 0 -- -- 98
2018-11-19 23:00:00 4.6 0 Calma 3 Noroeste 0 -- -- 96
2018-11-19 22:00:00 5.3 2 Noroeste 4 Noroeste 0 -- -- 96
2018-11-19 21:00:00 6.1 0 Calma 9 Nordeste 0 -- -- 98
2018-11-19 20:00:00 5.8 0 Calma 6 Norte 0 -- -- 98
2018-11-19 19:00:00 6.1 0 Calma 3 Norte 0 -- -- 94
2018-11-19 18:00:00 7.8 0 Calma 8 Nordeste 0 -- -- 88
2018-11-19 17:00:00 9.7 3 Nordeste 14 Nordeste 0 -- -- 83
2018-11-19 16:00:00 12.6 4 Norte 15 Nordeste 0 -- -- 66
2018-11-19 15:00:00 11.7 2 Noroeste 8 Oeste 0 -- -- 70
2018-11-19 14:00:00 13.3 6 Oeste 14 Oeste 0 -- -- 61
2018-11-19 13:00:00 13.3 4 Oeste 14 Noroeste 0 -- -- 64
2018-11-19 12:00:00 13.5 4 Este 10 Oeste 0 -- -- 63
2018-11-19 11:00:00 12.1 2 Sudoeste 4 Sudoeste 0 -- -- 74
2018-11-19 10:00:00 8.9 0 Calma 3 Sudoeste 0 -- -- 84
2018-11-19 09:00:00 7 0 Calma 3 Oeste 0 -- -- 90
2018-11-19 08:00:00 8.4 0 Calma 2 Sudoeste 0 -- -- 84
2018-11-19 07:00:00 9.1 0 Calma 11 Sudoeste 0 -- -- 82
2018-11-19 06:00:00 9.5 4 Oeste 9 Oeste 0 -- -- 79
2018-11-19 05:00:00 9.9 0 Calma 15 Sur 0 -- -- 77
2018-11-19 04:00:00 9.7 4 Sudoeste 26 Sudeste 0 -- -- 78
2018-11-19 03:00:00 9.6 4 Sur 20 Este 0 -- -- 79
2018-11-19 02:00:00 9.8 14 Sudoeste 49 Sur 0 -- -- 78
2018-11-19 01:00:00 10.2 28 Sudoeste 53 Sudoeste 0 -- -- 75
2018-11-19 00:00:00 10 6 Sudeste 23 Sudeste 0 -- -- 76
2018-11-18 23:00:00 9.8 5 Sudoeste 36 Sur 0 -- -- 76
2018-11-18 22:00:00 10.1 13 Sur 35 Sur 0 -- -- 74
2018-11-18 21:00:00 9.8 9 Sur 36 Sur 0 -- -- 76
2018-11-18 20:00:00 9.8 18 Sur 44 Sur 0 -- -- 77
2018-11-18 19:00:00 9.8 11 Sur 35 Sudeste 0 -- -- 78
2018-11-18 18:00:00 9.6 8 Sur 47 Sur 0 -- -- 78
2018-11-18 17:00:00 9.4 21 Sur 47 Sur 0 -- -- 79
2018-11-18 16:00:00 9.9 23 Sur 47 Sur 0 -- -- 77
2018-11-18 15:00:00 9.9 19 Sur 44 Sudoeste 0 -- -- 79
2018-11-18 14:00:00 11.3 22 Sudoeste 43 Sudoeste 0 -- -- 77
2018-11-18 13:00:00 10.3 17 Sudoeste 33 Sudoeste 0 -- -- 83
2018-11-18 12:00:00 11 9 Sur 49 Sudoeste 0.4 -- -- 82
2018-11-18 11:00:00 10.4 18 Sudoeste 35 Sudoeste 0 -- -- 84
2018-11-18 10:00:00 11.1 14 Sudoeste 34 Sudoeste 0 -- -- 81
2018-11-18 09:00:00 10.7 20 Sudoeste 37 Sudoeste 0 -- -- 86
2018-11-18 08:00:00 10.9 16 Sur 32 Sudoeste 0 -- -- 86
2018-11-18 07:00:00 11 12 Sur 28 Sur 0 -- -- 88
2018-11-18 06:00:00 11.2 7 Sur 30 Sur 0 -- -- 86
2018-11-18 05:00:00 11.2 12 Sur 26 Sudoeste 0 -- -- 87
2018-11-18 04:00:00 11.2 9 Sudoeste 26 Sudoeste 0 -- -- 86
2018-11-18 03:00:00 11.5 9 Sudoeste 27 Sudoeste 0 -- -- 87
2018-11-18 02:00:00 11.6 11 Sudoeste 23 Oeste 0 -- -- 85
2018-11-18 01:00:00 11.4 6 Sudoeste 18 Sudeste 0 -- -- 85
2018-11-18 00:00:00 11.6 5 Oeste 23 Sur 0 -- -- 83
2018-11-17 23:00:00 11.5 8 Sudoeste 18 Sudoeste 0 -- -- 83
2018-11-17 22:00:00 11.4 9 Sudoeste 24 Sudoeste 0 -- -- 84
2018-11-17 21:00:00 11 3 Oeste 13 Noroeste 0 -- -- 85
2018-11-17 20:00:00 10.2 2 Oeste 8 Oeste 0 -- -- 90
2018-11-17 19:00:00 11.6 3 Oeste 13 Noroeste 0 -- -- 84
2018-11-17 18:00:00 12.9 4 Oeste 13 Oeste 0 -- -- 78
2018-11-17 17:00:00 14.5 8 Oeste 17 Sur 0 -- -- 72
2018-11-17 16:00:00 16.8 10 Sudoeste 17 Sudoeste 0 -- -- 63
2018-11-17 15:00:00 16.8 10 Sur 22 Sudoeste 0 -- -- 65
2018-11-17 14:00:00 16.2 11 Sudoeste 25 Sudoeste 0 -- -- 68
2018-11-17 13:00:00 16.3 10 Sudoeste 20 Sudoeste 0 -- -- 69
2018-11-17 12:00:00 15.6 4 Sudeste 17 Sudeste 0 -- -- 70
2018-11-17 11:00:00 14.1 9 Sudoeste 30 Sur 0 -- -- 77
2018-11-17 10:00:00 13.3 9 Sudoeste 30 Sudoeste 0 -- -- 79
2018-11-17 09:00:00 12.5 15 Sudoeste 43 Sudoeste 0 -- -- 83
2018-11-17 08:00:00 12.5 21 Sudoeste 42 Sudoeste 0 -- -- 83
2018-11-17 07:00:00 12.7 20 Sudoeste 38 Sudoeste 0 -- -- 82
2018-11-17 06:00:00 12.5 12 Sur 27 Sur 0 -- -- 84
2018-11-17 05:00:00 12.5 3 Sudeste 19 Sudeste 0 -- -- 84
2018-11-17 04:00:00 12.8 6 Sudoeste 35 Sur 0 -- -- 83
2018-11-17 03:00:00 13.2 10 Sudoeste 33 Sur 0 -- -- 81
2018-11-17 02:00:00 13.3 22 Sudoeste 43 Sudoeste 0 -- -- 82
2018-11-17 01:00:00 13.2 6 Oeste 35 Sur 0 -- -- 82
2018-11-17 00:00:00 13.5 19 Sudoeste 41 Sudoeste 0 -- -- 81
2018-11-16 23:00:00 13.6 18 Sudoeste 39 Sudoeste 0 -- -- 80
2018-11-16 22:00:00 13.6 17 Sudoeste 34 Sur 0 -- -- 82
2018-11-16 21:00:00 13.7 17 Sudoeste 34 Sudoeste 0 -- -- 81
2018-11-16 20:00:00 13.9 11 Sudoeste 25 Sur 0 -- -- 80
2018-11-16 19:00:00 14 6 Oeste 22 Sur 0 -- -- 78
2018-11-16 18:00:00 14.6 6 Oeste 18 Oeste 0 -- -- 73
2018-11-16 17:00:00 15.5 4 Sur 30 Sur 0 -- -- 71
2018-11-16 16:00:00 16.5 13 Sur 31 Sur 0 -- -- 66
2018-11-16 15:00:00 17.2 12 Sur 32 Sur 0 -- -- 67
2018-11-16 14:00:00 16.7 17 Sudoeste 31 Sur 0 -- -- 66
2018-11-16 13:00:00 16.2 15 Sudoeste 40 Sur 0 -- -- 71
2018-11-16 12:00:00 15.4 18 Sur 39 Sudoeste 0 -- -- 72
2018-11-16 11:00:00 15 17 Sudoeste 37 Sur 0 -- -- 74
2018-11-16 10:00:00 13.7 19 Sudoeste 41 Sudoeste 0 -- -- 78
2018-11-16 09:00:00 12.8 7 Noroeste 18 Sur 0 -- -- 82
2018-11-16 08:00:00 12.8 5 Sudoeste 23 Sur 0 -- -- 83
2018-11-16 07:00:00 13.1 12 Sudoeste 43 Sudoeste 0 -- -- 81
2018-11-16 06:00:00 13 16 Sudoeste 43 Sudoeste 0 -- -- 81
2018-11-16 05:00:00 13 18 Sudoeste 40 Sudoeste 0 -- -- 80
2018-11-16 04:00:00 13 15 Sudoeste 31 Sudoeste 0 -- -- 81
2018-11-16 03:00:00 12.9 11 Sudoeste 27 Sur 0 -- -- 82
2018-11-16 02:00:00 13.1 15 Sudoeste 32 Sudoeste 0 -- -- 82
2018-11-16 01:00:00 13.4 10 Sudoeste 27 Oeste 0 -- -- 83
2018-11-16 00:00:00 13.7 14 Sudoeste 33 Sudoeste 0 -- -- 84
2018-11-15 23:00:00 14.2 16 Sudoeste 43 Sur 0 -- -- 80
2018-11-15 22:00:00 14.5 19 Sudoeste 33 Sudoeste 0 -- -- 77
2018-11-15 21:00:00 14.7 20 Sudoeste 36 Sudoeste 0 -- -- 75
2018-11-15 20:00:00 14.6 10 Sudoeste 26 Sudoeste 0 -- -- 77
2018-11-15 19:00:00 14.7 10 Oeste 19 Oeste 0 -- -- 78
2018-11-15 18:00:00 14.9 5 Oeste 17 Oeste 0 -- -- 78
2018-11-15 17:00:00 16.2 4 Noroeste 27 Sudoeste 0 -- -- 71
2018-11-15 16:00:00 17 8 Sur 33 Sudoeste 0 -- -- 68
2018-11-15 15:00:00 16.8 15 Sudoeste 31 Sudeste 0 -- -- 66
2018-11-15 14:00:00 17.7 12 Sur 34 Sudoeste 0 -- -- 65
2018-11-15 13:00:00 16.5 18 Sudoeste 39 Sudoeste 0 -- -- 73
2018-11-15 12:00:00 16 21 Sur 38 Sudoeste 0 -- -- 74
2018-11-15 11:00:00 15.2 16 Sur 43 Sudoeste 0 -- -- 78
2018-11-15 10:00:00 13.9 21 Sur 39 Sur 0 -- -- 82
2018-11-15 09:00:00 13.9 18 Sudoeste 40 Sur 0 -- -- 81
2018-11-15 08:00:00 13.8 18 Sudoeste 35 Sudoeste 0 -- -- 80
2018-11-15 07:00:00 13.8 26 Sudoeste 40 Sudoeste 0 -- -- 80
2018-11-15 06:00:00 13.8 21 Sur 48 Sudoeste 0 -- -- 81
2018-11-15 05:00:00 13.9 18 Sur 45 Sudoeste 0 -- -- 81
2018-11-15 04:00:00 13.9 22 Sur 45 Sudoeste 0 -- -- 81
2018-11-15 03:00:00 13.7 22 Sudoeste 40 Sudoeste 0 -- -- 82
2018-11-15 02:00:00 13.6 17 Sudoeste 39 Sudoeste 0 -- -- 81
2018-11-15 01:00:00 14.1 21 Sudoeste 43 Sudoeste 0 -- -- 79
2018-11-15 00:00:00 14.1 15 Sudoeste 48 Sur 0 -- -- 77
2018-11-14 23:00:00 14.1 27 Sudoeste 47 Sur 0 -- -- 76
2018-11-14 22:00:00 14.3 22 Sudoeste 50 Sudoeste 0 -- -- 77
2018-11-14 21:00:00 14.6 27 Sudoeste 54 Sudoeste 0 -- -- 75
2018-11-14 20:00:00 14.8 31 Sur 49 Sur 0 -- -- 71
2018-11-14 19:00:00 15.1 29 Sudoeste 45 Sudoeste 0 -- -- 72
2018-11-14 18:00:00 15.6 9 Sudoeste 30 Sudoeste 0 -- -- 66
2018-11-14 17:00:00 16.3 10 Sudoeste 33 Sudeste 0 -- -- 69
2018-11-14 16:00:00 17.7 8 Sudoeste 39 Sur 0 -- -- 65
2018-11-14 15:00:00 17.7 17 Sudoeste 44 Sur 0 -- -- 65
2018-11-14 14:00:00 17.2 12 Sur 41 Sudoeste 0 -- -- 71
2018-11-14 13:00:00 17.1 17 Sur 43 Sur 0 -- -- 70
2018-11-14 12:00:00 16.5 10 Sudoeste 35 Sur 0 -- -- 72
2018-11-14 11:00:00 15.3 21 Sudoeste 46 Sur 0 -- -- 76
2018-11-14 10:00:00 14.5 15 Sudoeste 48 Sudoeste 0 -- -- 80
2018-11-14 09:00:00 13.7 24 Sur 45 Sudoeste 0 -- -- 83
2018-11-14 08:00:00 13.6 11 Sudoeste 47 Sur 0 -- -- 83
2018-11-14 07:00:00 13.7 24 Sudoeste 42 Sur 0 -- -- 83
2018-11-14 06:00:00 13.8 27 Sudoeste 48 Sudoeste 0 -- -- 84
2018-11-14 05:00:00 13.9 31 Sur 60 Sur 0 -- -- 83
2018-11-14 04:00:00 13.8 24 Sudoeste 52 Sur 0 -- -- 84
2018-11-14 03:00:00 13.8 28 Sudoeste 52 Sudoeste 0 -- -- 84
2018-11-14 02:00:00 13.9 24 Sur 54 Sur 0 -- -- 82
2018-11-14 01:00:00 14.1 27 Sudoeste 48 Sudoeste 0 -- -- 81
2018-11-14 00:00:00 14.1 26 Sudoeste 51 Sudoeste 0.2 -- -- 80
2018-11-13 23:00:00 14 23 Sudoeste 45 Sudoeste 0 -- -- 82
2018-11-13 22:00:00 14.2 19 Sudoeste 39 Sudoeste 0 -- -- 82
2018-11-13 21:00:00 14 17 Sudoeste 34 Sudoeste 0 -- -- 83
2018-11-13 20:00:00 11.1 4 Oeste 12 Noroeste 0 -- -- 100
2018-11-13 19:00:00 10.8 0 Calma 5 Nordeste 0 -- -- 97
2018-11-13 18:00:00 11.8 0 Calma 5 Nordeste 0 -- -- 95
2018-11-13 17:00:00 13.1 0 Calma 5 Nordeste 0 -- -- 89
2018-11-13 16:00:00 15.1 0 Calma 8 Este 0 -- -- 83
2018-11-13 15:00:00 13.7 3 Este 8 Este 0 -- -- 85
2018-11-13 14:00:00 12.7 2 Sudeste 12 Este 0 -- -- 90
2018-11-13 13:00:00 11.9 4 Este 13 Sudeste 0 -- -- 95
2018-11-13 12:00:00 11.1 4 Este 10 Este 0 -- -- 98
2018-11-13 11:00:00 10.2 0 Calma 3 Norte 0 -- -- 100
2018-11-13 10:00:00 9.9 0 Calma 3 Nordeste 0 -- -- 100
2018-11-13 09:00:00 9.8 0 Calma 4 Norte 0 -- -- 100
2018-11-13 08:00:00 9.6 0 Calma 6 Norte 0 -- -- 100
2018-11-13 07:00:00 9.8 0 Calma 8 Norte 0 -- -- 100
2018-11-13 06:00:00 9.9 0 Calma 6 Norte 0 -- -- 100
2018-11-13 05:00:00 10 0 Calma 4 Norte 0 -- -- 100
2018-11-13 04:00:00 10 0 Calma 5 Norte 0 -- -- 100
2018-11-13 03:00:00 10.1 0 Calma 7 Norte 0.4 -- -- 100
2018-11-13 02:00:00 10.1 0 Calma 2 Norte 0 -- -- 100
2018-11-13 01:00:00 10.1 0 Calma 4 Norte 1.2 -- -- 100
2018-11-13 00:00:00 10.1 3 Noroeste 10 Oeste 0.6 -- -- 100
2018-11-12 23:00:00 10.2 0 Calma 8 Noroeste 0 -- -- 100
2018-11-12 22:00:00 10.3 2 Sudoeste 8 Sudoeste 1 -- -- 100
2018-11-12 21:00:00 10.3 0 Calma 4 Sur 2.6 -- -- 100
2018-11-12 20:00:00 10.4 0 Calma 4 Sur 0.4 -- -- 100
2018-11-12 19:00:00 10.3 0 Calma 5 Sur 0 -- -- 100
2018-11-12 18:00:00 10.4 0 Calma 6 Este 1.2 -- -- 100
2018-11-12 17:00:00 10.7 0 Calma 7 Nordeste 0 -- -- 100
2018-11-12 16:00:00 10.9 0 Calma 10 Este 0 -- -- 99
2018-11-12 15:00:00 11.3 2 Nordeste 7 Este 0 -- -- 98
2018-11-12 14:00:00 11.2 0 Calma 7 Sudoeste 0 -- -- 99
2018-11-12 13:00:00 10.7 2 Este 6 Nordeste 0.2 -- -- 99
2018-11-12 12:00:00 10.8 0 Calma 8 Este 0.4 -- -- 97
2018-11-12 11:00:00 11 0 Calma 14 Nordeste 0.4 -- -- 95
2018-11-12 10:00:00 12.3 6 Nordeste 28 Sudoeste 0 -- -- 87
2018-11-12 09:00:00 14.4 10 Sur 28 Sudoeste 0 -- -- 77
2018-11-12 08:00:00 14.3 12 Sur 33 Sur 0 -- -- 76
2018-11-12 07:00:00 14.7 12 Sur 34 Sur 0 -- -- 73
2018-11-12 06:00:00 14.9 13 Sur 44 Sudoeste 0 -- -- 72
2018-11-12 05:00:00 15.1 22 Sur 42 Sudoeste 0 -- -- 70
2018-11-12 04:00:00 15.2 12 Sudoeste 27 Sur 0 -- -- 72
2018-11-12 03:00:00 15.4 6 Sudeste 37 Sudoeste 0 -- -- 72
2018-11-12 02:00:00 15.3 5 Sur 22 Sudeste 0 -- -- 72
2018-11-12 01:00:00 15.5 6 Sudeste 27 Sur 0 -- -- 71
2018-11-12 00:00:00 15.8 9 Sudoeste 32 Sudoeste 0 -- -- 69
2018-11-11 23:00:00 16 4 Este 36 Sudoeste 0 -- -- 70
2018-11-11 22:00:00 15.7 5 Sudeste 29 Oeste 0 -- -- 70
2018-11-11 21:00:00 15.8 9 Sudoeste 34 Sur 0 -- -- 70
2018-11-11 20:00:00 15.6 14 Sur 33 Sur 0 -- -- 74
2018-11-11 19:00:00 14.5 4 Sudoeste 23 Sudeste 0.2 -- -- 80
2018-11-11 18:00:00 14.3 5 Este 28 Sudeste 0.2 -- -- 86
2018-11-11 17:00:00 15.4 9 Sudeste 33 Sur 0 -- -- 77
2018-11-11 16:00:00 16.1 17 Sudoeste 37 Sudoeste 0 -- -- 69
2018-11-11 15:00:00 16 22 Sudoeste 50 Sur 0 -- -- 69
2018-11-11 14:00:00 16.1 16 Sur 50 Sudoeste 0 -- -- 70
2018-11-11 13:00:00 16 31 Sudoeste 60 Sudoeste 0 -- -- 70
2018-11-11 12:00:00 15.9 18 Sudoeste 54 Sur 0 -- -- 71
2018-11-11 11:00:00 15.1 14 Sur 40 Sudoeste 0 -- -- 74
2018-11-11 10:00:00 14.1 14 Sudoeste 28 Sudoeste 0 -- -- 77
2018-11-11 09:00:00 13.6 12 Sur 41 Sudoeste 0 -- -- 77
2018-11-11 08:00:00 13 23 Sudoeste 40 Sudoeste 0 -- -- 76
2018-11-11 07:00:00 12.8 26 Sur 44 Sudoeste 0 -- -- 71
2018-11-11 06:00:00 12.5 17 Sudoeste 41 Sudoeste 0 -- -- 69
2018-11-11 05:00:00 12.6 23 Sudoeste 37 Sudoeste 0 -- -- 74
2018-11-11 04:00:00 12.9 6 Sudoeste 25 Sur 0 -- -- 71
2018-11-11 03:00:00 14.5 14 Sudoeste 45 Oeste 0 -- -- 58
2018-11-11 02:00:00 14.7 22 Sudoeste 40 Sudoeste 0 -- -- 54
2018-11-11 01:00:00 13.9 16 Sudoeste 33 Oeste 0 -- -- 63
2018-11-11 00:00:00 14.7 14 Sudoeste 28 Sudoeste 0 -- -- 54
2018-11-10 23:00:00 15.1 12 Oeste 33 Sudoeste 0 -- -- 55
2018-11-10 22:00:00 15.3 14 Oeste 37 Noroeste 0 -- -- 56
2018-11-10 21:00:00 15.5 14 Oeste 34 Noroeste 0 -- -- 58
2018-11-10 20:00:00 15.7 18 Sudoeste 36 Oeste 0 -- -- 60
2018-11-10 19:00:00 15.7 19 Sudoeste 48 Sudoeste 0 -- -- 63
2018-11-10 18:00:00 15.7 15 Sudoeste 46 Noroeste 0 -- -- 63
2018-11-10 17:00:00 15.8 19 Sudoeste 42 Oeste 0 -- -- 62
2018-11-10 16:00:00 16.4 11 Sudoeste 28 Sudoeste 0 -- -- 64
2018-11-10 15:00:00 15.3 15 Sur 48 Sudoeste 0 -- -- 69
2018-11-10 14:00:00 16.7 14 Sur 33 Sur 0 -- -- 65
2018-11-10 13:00:00 14.7 19 Sudoeste 39 Sur 0 -- -- 73
2018-11-10 12:00:00 12.5 11 Sur 38 Sudoeste 0 -- -- 82
2018-11-10 11:00:00 11.8 20 Sudoeste 48 Sudoeste 0 -- -- 83
2018-11-10 10:00:00 11.1 18 Sudoeste 42 Oeste 0 -- -- 85
2018-11-10 09:00:00 11.1 15 Sudoeste 59 Sudoeste 0 -- -- 81
2018-11-10 08:00:00 11.5 16 Sudoeste 42 Sudoeste 0 -- -- 77
2018-11-10 07:00:00 11.5 23 Sudoeste 46 Sudoeste 0 -- -- 76
2018-11-10 06:00:00 11.4 22 Sudoeste 48 Sudoeste 0 -- -- 76
2018-11-10 05:00:00 11.8 25 Sudoeste 44 Sudoeste 0 -- -- 74
2018-11-10 04:00:00 11 13 Sudoeste 42 Sudeste 0 -- -- 77
2018-11-10 03:00:00 11.2 27 Sur 46 Sudoeste 0 -- -- 73
2018-11-10 02:00:00 10.6 16 Sur 44 Sudoeste 0.4 -- -- 76
2018-11-10 01:00:00 10.9 21 Sudoeste 50 Sudoeste 0.2 -- -- 76
2018-11-10 00:00:00 12.6 20 Sudoeste 39 Sudoeste 0 -- -- 71
2018-11-09 23:00:00 11.7 15 Sudoeste 35 Sur 0.2 -- -- 76
2018-11-09 22:00:00 10.8 5 Sudoeste 21 Sudoeste 0 -- -- 77
2018-11-09 21:00:00 10.7 6 Sudoeste 19 Sudoeste 0 -- -- 75
2018-11-09 20:00:00 9.8 3 Oeste 9 Sudoeste 0 -- -- 76
2018-11-09 19:00:00 8.4 0 Calma 11 Noroeste 0 -- -- 80
2018-11-09 18:00:00 8.7 2 Sudoeste 10 Sudoeste 0 -- -- 74
2018-11-09 17:00:00 11.4 7 Sudoeste 24 Sur 0 -- -- 58
2018-11-09 16:00:00 13.3 8 Sudoeste 22 Sudoeste 0 -- -- 55
2018-11-09 15:00:00 13.1 9 Sudoeste 20 Sur 0 -- -- 61
2018-11-09 14:00:00 12.8 12 Sudoeste 18 Sudoeste 0 -- -- 62
2018-11-09 13:00:00 11.9 6 Noroeste 17 Sudoeste 0 -- -- 70
2018-11-09 12:00:00 10.1 0 Calma 14 Sudoeste 0.2 -- -- 84
2018-11-09 11:00:00 9 5 Sudoeste 12 Sudoeste 0 -- -- 91
2018-11-09 10:00:00 8.3 0 Calma 9 Sudoeste 0 -- -- 96
2018-11-09 09:00:00 8.1 2 Sur 12 Sur 0 -- -- 96
2018-11-09 08:00:00 7.7 0 Calma 11 Sur 0 -- -- 98
2018-11-09 07:00:00 8 4 Norte 15 Noroeste 0 -- -- 98
2018-11-09 06:00:00 7.8 0 Calma 5 Norte 0.4 -- -- 100
2018-11-09 05:00:00 7.8 2 Norte 5 Nordeste 2.2 -- -- 100
2018-11-09 04:00:00 7.9 0 Calma 7 Norte 2.4 -- -- 100
2018-11-09 03:00:00 7.9 0 Calma 5 Norte 0 -- -- 100
2018-11-09 02:00:00 7.9 0 Calma 13 Oeste 0 -- -- 99
2018-11-09 01:00:00 8 3 Sudeste 8 Oeste 0 -- -- 99
2018-11-09 00:00:00 8.5 0 Calma 24 Oeste 3.8 -- -- 97